Main page
METAR-TAF:

METAR-TAF

Airports :

Zagreb Airport

Zagreb, Croatia

latitude: 45-44N, longitude: 016-04E, elevation: 106 m

Current weather observation

The report was made 29 minutes ago, at 20:30 UTC
Wind 2 kt from variable directions
Temperature 8°C
Humidity 61%
Pressure 1021 hPa
Visibility 10 km or more
no clouds below 1500 m and no cumulonimbus

METAR: LDZA 092030Z VRB02KT CAVOK 08/01 Q1021 NOSIG

Time: 22:59 (20:59 UTC)

Forecast

The report was made 3 hours and 34 minutes ago, at 17:25 UTC
Forecast valid from 09 at 18 UTC to 10 at 18 UTC
Wind 2 kt from variable directions
Visibility 10 km or more
no clouds below 1500 m and no cumulonimbus

TAF: LDZA 091725Z 0918/1018 VRB02KT CAVOK TX24/1013Z TN03/1005Z

Weather observations and forecasts of more than 4000 airports (METAR and TAF reports).

The available stations are represented by yellow and red dots on the map.

Hover mouse over dot to see the name of the station.

Then click to see weather observations and forecasts.

To change the map : click on the green buttons with a black cross to zoom in, on the green button with a dash to zoom out, or on the green arrows for adjacent maps.


METAR-TAF: